Time;durP1;ratioP1;P1;durP2;ratioP2;P2;SDS_P1;SDS_P2;PMS_P1;PMS_P2;Temp;Humidity;BMP_temperature;BMP_pressure;BME280_temperature;BME280_humidity;BME280_pressure;Samples;Min_cycle;Max_cycle;Signal;HPM_P1;HPM_P2
2022/05/09 00:02:15;;;;;;;4.15;2.05;;;8.20;99.90;;;;;;5069922;28;20448;-60
2022/05/09 00:04:41;;;;;;;3.67;2.42;;;8.10;99.90;;;;;;5069927;28;20043;-59
2022/05/09 00:07:07;;;;;;;4.55;1.83;;;8.10;99.90;;;;;;5069826;28;20029;-59
2022/05/09 00:09:33;;;;;;;3.55;2.00;;;8.10;99.90;;;;;;5070007;28;20020;-59
2022/05/09 00:11:59;;;;;;;2.40;1.42;;;8.10;99.90;;;;;;5069673;28;20020;-60
2022/05/09 00:14:25;;;;;;;4.03;1.77;;;8.10;99.90;;;;;;5069756;28;20393;-60
2022/05/09 00:16:51;;;;;;;4.88;2.38;;;8.10;99.90;;;;;;5069757;28;20115;-60
2022/05/09 00:19:20;;;;;;;5.65;2.03;;;8.20;99.90;;;;;;5069992;28;20485;-60
2022/05/09 00:21:47;;;;;;;5.28;2.10;;;8.20;99.90;;;;;;5069965;28;20037;-59
2022/05/09 00:24:14;;;;;;;3.95;2.47;;;8.30;99.90;;;;;;5069681;28;20032;-59
2022/05/09 00:26:41;;;;;;;5.85;2.92;;;8.30;99.90;;;;;;5069687;28;20074;-59
2022/05/09 00:29:09;;;;;;;4.03;2.30;;;8.40;99.90;;;;;;5068974;28;20067;-60
2022/05/09 00:31:35;;;;;;;5.18;2.42;;;8.40;99.90;;;;;;5051217;28;20056;-59
2022/05/09 00:34:01;;;;;;;3.17;1.40;;;8.40;99.90;;;;;;5048642;28;20029;-59
2022/05/09 00:36:27;;;;;;;2.50;1.38;;;8.20;99.90;;;;;;5049491;28;20025;-59
2022/05/09 00:38:53;;;;;;;1.90;1.40;;;8.20;99.90;;;;;;5049642;28;20032;-59
2022/05/09 00:41:29;;;;;;;2.78;1.52;;;8.10;99.90;;;;;;5056099;28;20489;-59
2022/05/09 00:43:56;;;;;;;5.53;1.90;;;8.00;99.90;;;;;;5069305;28;20031;-59
2022/05/09 00:46:23;;;;;;;3.63;1.67;;;8.00;99.90;;;;;;5069695;28;20101;-59
2022/05/09 00:48:49;;;;;;;2.67;1.90;;;7.90;99.90;;;;;;5069475;28;20033;-59
2022/05/09 00:51:19;;;;;;;2.67;1.55;;;7.90;99.90;;;;;;5069791;28;20040;-59
2022/05/09 00:53:45;;;;;;;5.47;1.98;;;7.80;99.90;;;;;;5069335;28;20432;-59
2022/05/09 00:56:18;;;;;;;2.33;1.52;;;7.70;99.90;;;;;;5065907;28;20039;-59
2022/05/09 00:58:52;;;;;;;3.25;1.40;;;7.60;99.90;;;;;;5069603;28;20023;-59
2022/05/09 01:01:20;;;;;;;3.17;1.70;;;7.60;99.90;;;;;;5068497;28;20142;-59
2022/05/09 01:03:50;;;;;;;3.60;1.17;;;7.50;99.90;;;;;;5066476;28;20514;-59
2022/05/09 01:06:16;;;;;;;3.90;1.60;;;7.40;99.90;;;;;;5068486;28;20037;-59
2022/05/09 01:08:41;;;;;;;3.50;1.48;;;7.40;99.90;;;;;;5073015;28;20055;-59
2022/05/09 01:11:10;;;;;;;1.65;1.25;;;7.30;99.90;;;;;;5073195;28;20039;-59
2022/05/09 01:13:41;;;;;;;7.15;2.28;;;7.30;99.90;;;;;;5073415;28;20021;-59
2022/05/09 01:16:08;;;;;;;2.95;1.88;;;7.20;99.90;;;;;;5073065;28;20048;-59
2022/05/09 01:18:36;;;;;;;2.17;1.75;;;7.10;99.90;;;;;;5073181;28;20035;-59
2022/05/09 01:21:25;;;;;;;6.60;1.85;;;7.10;99.90;;;;;;5072916;28;20035;-59
2022/05/09 01:23:51;;;;;;;4.75;1.60;;;7.10;99.90;;;;;;5064411;28;20036;-59
2022/05/09 01:26:16;;;;;;;2.85;1.63;;;7.00;99.90;;;;;;5054769;28;20472;-58
2022/05/09 01:28:42;;;;;;;8.85;2.05;;;7.00;99.90;;;;;;5072780;28;20028;-59
2022/05/09 01:31:10;;;;;;;4.38;2.03;;;6.90;99.90;;;;;;5069652;28;20027;-58
2022/05/09 01:33:41;;;;;;;7.10;1.75;;;6.90;99.90;;;;;;5072740;28;20021;-59
2022/05/09 01:36:18;;;;;;;5.10;2.10;;;6.80;99.90;;;;;;5072687;28;20055;-59
2022/05/09 01:39:03;;;;;;;2.30;1.67;;;6.70;99.90;;;;;;5072718;28;20025;-59
2022/05/09 01:41:36;;;;;;;3.58;1.55;;;6.80;99.90;;;;;;5072196;28;20127;-59
2022/05/09 01:44:02;;;;;;;6.43;1.95;;;6.80;99.90;;;;;;5072433;28;20008;-59
2022/05/09 01:46:30;;;;;;;4.68;2.22;;;6.80;99.90;;;;;;5061026;28;20400;-59
2022/05/09 01:51:42;;;;;;;4.85;1.50;;;6.90;99.90;;;;;;5069641;28;20171;-59
2022/05/09 01:54:10;;;;;;;5.32;2.10;;;6.80;99.90;;;;;;5069278;28;20081;-59
2022/05/09 01:56:39;;;;;;;4.75;1.67;;;6.80;99.90;;;;;;5069216;28;20024;-59
2022/05/09 01:59:07;;;;;;;3.58;1.38;;;6.70;99.90;;;;;;5069240;28;20055;-59
2022/05/09 02:01:40;;;;;;;3.58;1.83;;;6.60;99.90;;;;;;5069302;28;20066;-59
2022/05/09 02:04:05;;;;;;;3.03;1.50;;;6.60;99.90;;;;;;5069982;28;20017;-59
2022/05/09 02:06:31;;;;;;;2.95;1.63;;;6.60;99.90;;;;;;5072049;28;20029;-59
2022/05/09 02:08:57;;;;;;;3.20;2.33;;;6.60;99.90;;;;;;5071990;28;20134;-59
2022/05/09 02:11:23;;;;;;;6.72;1.63;;;6.60;99.90;;;;;;5071911;28;20427;-59
2022/05/09 02:13:49;;;;;;;4.43;2.05;;;6.60;99.90;;;;;;5072035;28;20017;-58
2022/05/09 02:16:15;;;;;;;2.88;1.77;;;6.50;99.90;;;;;;5071879;28;20046;-59
2022/05/09 02:18:40;;;;;;;2.40;1.33;;;6.50;99.90;;;;;;5071372;28;20020;-58
2022/05/09 02:21:06;;;;;;;4.85;1.95;;;6.50;99.90;;;;;;5068711;28;20028;-59
2022/05/09 02:23:33;;;;;;;3.72;2.08;;;6.40;99.90;;;;;;5068940;28;20021;-58
2022/05/09 02:25:59;;;;;;;5.65;1.67;;;6.40;99.90;;;;;;5068295;28;20025;-58
2022/05/09 02:28:25;;;;;;;6.43;2.35;;;6.40;99.90;;;;;;5068791;28;20062;-58
2022/05/09 02:30:51;;;;;;;4.15;2.30;;;6.40;99.90;;;;;;5071676;28;20052;-58
2022/05/09 02:33:17;;;;;;;5.07;2.28;;;6.40;99.90;;;;;;5071679;28;20048;-58
2022/05/09 02:35:43;;;;;;;4.65;1.50;;;6.50;99.90;;;;;;5071779;28;20099;-58
2022/05/09 02:38:09;;;;;;;2.53;1.70;;;6.50;99.90;;;;;;5071453;28;20120;-58
2022/05/09 02:40:35;;;;;;;4.07;1.67;;;6.60;99.90;;;;;;5071204;28;20031;-59
2022/05/09 02:43:02;;;;;;;4.18;1.90;;;6.60;99.90;;;;;;5071345;28;20047;-59
2022/05/09 02:45:28;;;;;;;6.22;1.88;;;6.60;99.90;;;;;;5071136;28;20401;-58
2022/05/09 02:47:55;;;;;;;4.60;2.05;;;6.60;99.90;;;;;;5071603;28;20028;-58
2022/05/09 02:50:22;;;;;;;3.55;1.90;;;6.60;99.90;;;;;;5071224;28;20056;-58
2022/05/09 02:52:49;;;;;;;7.13;1.98;;;6.60;99.90;;;;;;5071065;28;20029;-58
2022/05/09 02:55:15;;;;;;;12.00;2.40;;;6.60;99.90;;;;;;5071322;28;20033;-58
2022/05/09 02:57:41;;;;;;;5.97;2.65;;;6.50;99.90;;;;;;5067917;28;20201;-58
2022/05/09 03:00:11;;;;;;;4.22;2.33;;;6.40;99.90;;;;;;5071383;28;20479;-58
2022/05/09 03:02:37;;;;;;;5.82;2.45;;;6.40;99.90;;;;;;5070901;28;20118;-58
2022/05/09 03:05:04;;;;;;;5.15;2.05;;;6.40;99.90;;;;;;5071051;28;20142;-58
2022/05/09 03:07:29;;;;;;;3.17;1.65;;;6.30;99.90;;;;;;5071070;28;20115;-58
2022/05/09 03:09:55;;;;;;;8.75;2.13;;;6.40;99.90;;;;;;5070700;28;20171;-58
2022/05/09 03:12:20;;;;;;;2.60;1.70;;;6.40;99.90;;;;;;5070577;28;20381;-58
2022/05/09 03:14:47;;;;;;;4.50;1.98;;;6.40;99.90;;;;;;5070797;28;20505;-59
2022/05/09 03:17:14;;;;;;;2.17;1.60;;;6.40;99.90;;;;;;5070880;28;20431;-58
2022/05/09 03:19:40;;;;;;;4.00;2.15;;;6.30;99.90;;;;;;5071019;28;20089;-58
2022/05/09 03:22:06;;;;;;;4.63;2.28;;;6.20;99.90;;;;;;5070498;28;20039;-59
2022/05/09 03:24:32;;;;;;;3.75;1.70;;;6.20;99.90;;;;;;5067266;28;20464;-58
2022/05/09 03:26:59;;;;;;;4.95;2.53;;;6.20;99.90;;;;;;5070717;28;20074;-58
2022/05/09 03:29:26;;;;;;;4.45;2.47;;;6.10;99.90;;;;;;5070104;28;20060;-58
2022/05/09 03:31:55;;;;;;;3.00;1.73;;;6.10;99.90;;;;;;5070403;28;20032;-58
2022/05/09 03:34:21;;;;;;;3.53;1.95;;;6.10;99.90;;;;;;5070437;28;20098;-58
2022/05/09 03:36:47;;;;;;;6.00;2.25;;;6.00;99.90;;;;;;5070381;28;20098;-58
2022/05/09 03:39:13;;;;;;;4.45;2.60;;;5.90;99.90;;;;;;5070464;28;20032;-58
2022/05/09 03:41:39;;;;;;;5.40;2.55;;;5.80;99.90;;;;;;5070099;28;20040;-58
2022/05/09 03:44:05;;;;;;;3.67;1.92;;;5.80;99.90;;;;;;5070178;28;20580;-59
2022/05/09 03:46:32;;;;;;;4.70;2.05;;;5.70;99.90;;;;;;5070531;28;20064;-58
2022/05/09 03:49:00;;;;;;;4.55;2.40;;;5.60;99.90;;;;;;5070449;28;20025;-61
2022/05/09 03:51:26;;;;;;;4.78;2.38;;;5.60;99.90;;;;;;5070182;28;20484;-58
2022/05/09 03:53:52;;;;;;;4.15;1.90;;;5.60;99.90;;;;;;5070017;28;20034;-58
2022/05/09 03:56:17;;;;;;;2.85;2.00;;;5.60;99.90;;;;;;5070093;28;20050;-57
2022/05/09 03:58:43;;;;;;;4.45;2.20;;;5.60;99.90;;;;;;5052459;28;20028;-58
2022/05/09 04:01:11;;;;;;;4.60;2.33;;;5.60;99.90;;;;;;5069983;28;20111;-58
2022/05/09 04:03:38;;;;;;;3.03;1.50;;;5.60;99.90;;;;;;5070037;28;20024;-57
2022/05/09 04:06:04;;;;;;;5.57;2.58;;;5.60;99.90;;;;;;5069956;28;20067;-58
2022/05/09 04:08:29;;;;;;;6.40;2.20;;;5.60;99.90;;;;;;5069675;28;20086;-59
2022/05/09 04:10:55;;;;;;;7.45;2.35;;;5.70;99.90;;;;;;5069612;28;20024;-58
2022/05/09 04:13:21;;;;;;;3.92;2.13;;;5.70;99.90;;;;;;5069850;28;20029;-58
2022/05/09 04:18:42;;;;;;;6.07;2.58;;;5.70;99.90;;;;;;5066390;28;20070;-58
2022/05/09 04:21:10;;;;;;;4.90;3.17;;;5.80;99.90;;;;;;5067904;28;20059;-58
2022/05/09 04:23:37;;;;;;;3.28;1.85;;;5.80;99.90;;;;;;5069756;28;20111;-59
2022/05/09 04:26:05;;;;;;;5.88;2.05;;;5.80;99.90;;;;;;5069617;28;20013;-59
2022/05/09 04:28:31;;;;;;;2.90;1.50;;;5.70;99.90;;;;;;5069965;28;20029;-59
2022/05/09 04:30:58;;;;;;;3.65;2.05;;;5.60;99.90;;;;;;5068744;28;20094;-59
2022/05/09 04:33:24;;;;;;;3.03;1.45;;;5.60;99.90;;;;;;5066969;28;20056;-59
2022/05/09 04:35:50;;;;;;;3.53;1.83;;;5.60;99.90;;;;;;5066764;28;20442;-59
2022/05/09 04:38:22;;;;;;;2.00;1.58;;;5.60;99.90;;;;;;5068661;28;20338;-59
2022/05/09 04:40:52;;;;;;;2.58;1.70;;;5.50;99.90;;;;;;5068920;28;20113;-59
2022/05/09 04:43:24;;;;;;;2.25;1.90;;;5.50;99.90;;;;;;5070412;28;20070;-60
2022/05/09 04:45:50;;;;;;;3.78;1.88;;;5.50;99.90;;;;;;5070329;28;20493;-58
2022/05/09 04:48:17;;;;;;;5.22;1.90;;;5.50;99.90;;;;;;5073769;28;20039;-59
2022/05/09 04:50:44;;;;;;;6.13;1.75;;;5.50;99.90;;;;;;5073665;28;20535;-59
2022/05/09 04:53:10;;;;;;;8.10;2.33;;;5.50;99.90;;;;;;5073343;28;20036;-59
2022/05/09 04:55:35;;;;;;;3.30;2.10;;;5.50;99.90;;;;;;5073440;28;20090;-59
2022/05/09 04:58:03;;;;;;;3.25;2.17;;;5.60;99.90;;;;;;5073660;28;20424;-59
2022/05/09 05:00:29;;;;;;;2.40;1.50;;;5.60;99.90;;;;;;5072764;28;20067;-59
2022/05/09 05:02:56;;;;;;;3.95;2.22;;;5.70;99.90;;;;;;5069249;28;20036;-59
2022/05/09 05:05:23;;;;;;;6.00;1.77;;;5.80;99.90;;;;;;5067652;28;20017;-60
2022/05/09 05:07:49;;;;;;;3.80;1.90;;;5.80;99.90;;;;;;5071833;28;20033;-59
2022/05/09 05:10:16;;;;;;;3.60;2.10;;;5.90;99.90;;;;;;5073074;28;20067;-60
2022/05/09 05:12:42;;;;;;;4.07;1.80;;;6.00;99.90;;;;;;5069609;28;20046;-59
2022/05/09 05:15:08;;;;;;;2.80;1.38;;;6.00;99.90;;;;;;5069869;28;20036;-59
2022/05/09 05:17:35;;;;;;;2.72;1.58;;;6.00;99.90;;;;;;5070113;28;20028;-59
2022/05/09 05:20:02;;;;;;;8.52;2.00;;;6.10;99.90;;;;;;5069762;28;20370;-59
2022/05/09 05:22:28;;;;;;;3.00;2.10;;;6.10;99.90;;;;;;5071740;28;20127;-59
2022/05/09 05:24:54;;;;;;;3.65;2.67;;;6.30;99.90;;;;;;5072624;28;20151;-59
2022/05/09 05:27:23;;;;;;;6.05;2.10;;;6.40;99.90;;;;;;5069325;28;20484;-59
2022/05/09 05:29:49;;;;;;;4.43;1.98;;;6.50;99.90;;;;;;5072763;28;20048;-59
2022/05/09 05:32:24;;;;;;;4.10;2.53;;;6.60;99.90;;;;;;5072786;28;20385;-59
2022/05/09 05:34:50;;;;;;;3.78;2.47;;;6.80;99.90;;;;;;5072909;28;20096;-59
2022/05/09 05:37:17;;;;;;;5.90;2.38;;;6.90;99.90;;;;;;5069914;28;20890;-58
2022/05/09 05:39:47;;;;;;;5.43;2.53;;;7.00;99.90;;;;;;5069323;28;20052;-59
2022/05/09 05:42:18;;;;;;;4.82;2.25;;;7.10;99.90;;;;;;5068561;28;20043;-58
2022/05/09 05:44:44;;;;;;;5.47;2.30;;;7.20;99.90;;;;;;5069173;28;20055;-58
2022/05/09 05:47:13;;;;;;;4.60;1.73;;;7.30;99.90;;;;;;5053327;28;20435;-58
2022/05/09 05:49:39;;;;;;;5.88;2.45;;;7.50;99.90;;;;;;5072475;28;20358;-58
2022/05/09 05:52:06;;;;;;;4.47;2.38;;;7.60;99.90;;;;;;5069198;28;20627;-58
2022/05/09 05:54:36;;;;;;;5.78;2.58;;;7.70;99.90;;;;;;5068603;28;20389;-59
2022/05/09 05:57:03;;;;;;;3.42;2.17;;;7.80;99.90;;;;;;5068759;28;20056;-59
2022/05/09 05:59:29;;;;;;;2.47;1.30;;;7.90;99.90;;;;;;5068970;28;20039;-58
2022/05/09 06:01:55;;;;;;;6.65;2.72;;;8.00;99.90;;;;;;5050887;28;20495;-58
2022/05/09 06:04:21;;;;;;;3.22;1.98;;;8.10;99.90;;;;;;5068656;28;20485;-59
2022/05/09 06:06:47;;;;;;;4.55;2.30;;;8.20;99.90;;;;;;5068635;28;20115;-58
2022/05/09 06:09:13;;;;;;;4.00;2.15;;;8.30;99.90;;;;;;5068963;28;20103;-58
2022/05/09 06:11:40;;;;;;;3.55;1.60;;;8.40;99.90;;;;;;5070920;28;20123;-58
2022/05/09 06:14:07;;;;;;;3.03;2.10;;;8.50;99.90;;;;;;5068803;28;20047;-58
2022/05/09 06:16:33;;;;;;;5.78;2.20;;;8.60;99.90;;;;;;5069061;28;20106;-58
2022/05/09 06:19:00;;;;;;;3.20;2.05;;;8.70;99.90;;;;;;5071876;28;20465;-58
2022/05/09 06:21:26;;;;;;;4.88;2.35;;;8.80;99.90;;;;;;5071709;28;20052;-58
2022/05/09 06:23:52;;;;;;;5.18;2.20;;;8.90;99.90;;;;;;5071620;28;20111;-59
2022/05/09 06:26:18;;;;;;;3.25;2.30;;;9.10;99.90;;;;;;5071438;28;20112;-59
2022/05/09 06:28:44;;;;;;;4.60;2.60;;;9.40;99.90;;;;;;5071964;28;20051;-58
2022/05/09 06:31:09;;;;;;;3.53;2.47;;;9.60;99.90;;;;;;5070762;28;20389;-59
2022/05/09 06:33:35;;;;;;;3.72;2.20;;;9.80;99.90;;;;;;5053811;28;20048;-58
2022/05/09 06:36:01;;;;;;;4.10;2.13;;;10.00;99.90;;;;;;5071062;28;20031;-59
2022/05/09 06:38:27;;;;;;;5.35;3.25;;;10.30;99.90;;;;;;5068032;28;20108;-59
2022/05/09 06:40:54;;;;;;;5.15;3.00;;;10.60;99.90;;;;;;5069731;28;20033;-60
2022/05/09 06:43:22;;;;;;;7.65;2.50;;;10.80;99.90;;;;;;5071248;28;20029;-60
2022/05/09 06:45:50;;;;;;;7.28;2.63;;;11.00;99.90;;;;;;5071195;28;20054;-59
2022/05/09 06:48:16;;;;;;;5.30;2.95;;;11.20;99.90;;;;;;5071308;28;20035;-59
2022/05/09 06:50:42;;;;;;;7.55;2.88;;;11.40;99.90;;;;;;5071266;28;20055;-59
2022/05/09 06:53:09;;;;;;;5.80;3.05;;;11.70;99.90;;;;;;5071285;28;20056;-59
2022/05/09 06:55:35;;;;;;;4.80;3.13;;;12.00;99.90;;;;;;5070845;28;20047;-59
2022/05/09 06:58:16;;;;;;;6.97;3.83;;;12.20;99.90;;;;;;5070981;28;20056;-59
2022/05/09 07:00:42;;;;;;;10.23;3.63;;;12.40;99.90;;;;;;5067204;28;20103;-59
2022/05/09 07:03:08;;;;;;;4.07;2.70;;;12.50;99.90;;;;;;5066498;28;20120;-59
2022/05/09 07:05:37;;;;;;;7.72;3.25;;;12.70;99.90;;;;;;5067739;28;20055;-59
2022/05/09 07:08:03;;;;;;;7.65;3.47;;;13.00;99.90;;;;;;5069424;28;20385;-60
2022/05/09 07:10:29;;;;;;;5.80;2.85;;;13.10;99.90;;;;;;5070599;28;20021;-59
2022/05/09 07:12:56;;;;;;;7.32;3.13;;;13.30;99.90;;;;;;5070779;28;20040;-59
2022/05/09 07:15:27;;;;;;;6.45;4.07;;;13.50;99.90;;;;;;5070660;28;20024;-59
2022/05/09 07:17:54;;;;;;;7.03;3.63;;;13.50;99.90;;;;;;5070478;28;20546;-59
2022/05/09 07:20:22;;;;;;;5.68;3.15;;;13.90;99.90;;;;;;5070366;28;20054;-59
2022/05/09 07:22:50;;;;;;;6.60;3.63;;;14.10;99.90;;;;;;5070746;28;20237;-60
2022/05/09 07:25:16;;;;;;;6.75;3.08;;;14.50;99.90;;;;;;5070550;28;20162;-59
2022/05/09 07:27:42;;;;;;;6.22;3.88;;;15.10;99.90;;;;;;5070481;28;20826;-60
2022/05/09 07:30:13;;;;;;;10.23;3.75;;;15.60;99.90;;;;;;5070302;28;20103;-60
2022/05/09 07:32:39;;;;;;;7.30;3.95;;;16.00;99.90;;;;;;5067184;28;20186;-59
2022/05/09 07:35:10;;;;;;;10.35;4.85;;;16.60;99.90;;;;;;5070654;28;20123;-60
2022/05/09 07:37:37;;;;;;;18.00;6.47;;;17.00;99.90;;;;;;5070228;28;20033;-61
2022/05/09 07:40:03;;;;;;;8.00;3.38;;;17.70;99.40;;;;;;5070213;28;20107;-60
2022/05/09 07:42:29;;;;;;;8.10;4.13;;;18.30;98.70;;;;;;5069669;28;20052;-60
2022/05/09 07:44:56;;;;;;;4.70;3.45;;;18.30;97.00;;;;;;5069991;28;20041;-60
2022/05/09 07:47:23;;;;;;;5.13;3.17;;;18.80;96.50;;;;;;5070116;28;20033;-60
2022/05/09 07:49:50;;;;;;;7.90;3.08;;;18.60;97.10;;;;;;5070370;28;20024;-60
2022/05/09 07:52:16;;;;;;;4.97;3.20;;;19.00;96.40;;;;;;5070183;28;20477;-60
2022/05/09 07:54:43;;;;;;;6.90;2.92;;;19.80;94.20;;;;;;5069843;28;20039;-61
2022/05/09 07:57:09;;;;;;;6.72;3.60;;;20.20;92.90;;;;;;5069726;28;20522;-61
2022/05/09 07:59:35;;;;;;;6.55;3.55;;;20.30;92.30;;;;;;5069990;28;20033;-61
2022/05/09 08:02:01;;;;;;;5.40;3.13;;;20.40;91.90;;;;;;5069955;28;20062;-61
2022/05/09 08:04:26;;;;;;;5.32;3.35;;;20.80;91.20;;;;;;5068415;28;20051;-61
2022/05/09 08:06:52;;;;;;;4.65;3.85;;;20.90;91.00;;;;;;5066615;28;20397;-62
2022/05/09 08:09:18;;;;;;;5.05;3.08;;;21.30;88.40;;;;;;5068027;28;20021;-62
2022/05/09 08:11:44;;;;;;;5.70;3.42;;;21.70;86.50;;;;;;5069753;28;20063;-61
2022/05/09 08:14:11;;;;;;;5.63;3.45;;;21.50;88.00;;;;;;5069871;28;20139;-62
2022/05/09 08:16:38;;;;;;;5.57;3.13;;;22.60;84.00;;;;;;5070064;28;20021;-59
2022/05/09 08:19:04;;;;;;;3.60;3.10;;;22.50;83.80;;;;;;5069735;28;20115;-59
2022/05/09 08:21:30;;;;;;;5.43;4.05;;;22.60;83.10;;;;;;5069690;28;20131;-59
2022/05/09 08:23:57;;;;;;;6.15;2.95;;;22.60;82.00;;;;;;5069870;28;20024;-59
2022/05/09 08:26:23;;;;;;;4.80;3.17;;;23.60;78.50;;;;;;5069973;28;20024;-59
2022/05/09 08:28:50;;;;;;;5.07;3.33;;;24.00;72.90;;;;;;5069784;28;20511;-59
2022/05/09 08:31:18;;;;;;;5.75;3.42;;;23.80;72.90;;;;;;5069763;28;20052;-61
2022/05/09 08:33:46;;;;;;;6.35;3.15;;;24.50;72.10;;;;;;5070095;28;20153;-59
2022/05/09 08:36:45;;;;;;;5.35;3.67;;;24.90;69.80;;;;;;5069791;28;20380;-60
2022/05/09 08:38:58;;;;;;;5.65;3.58;;;25.10;65.40;;;;;;5069416;28;20462;-60
2022/05/09 08:41:26;;;;;;;7.05;2.38;;;25.10;62.60;;;;;;5069449;28;20107;-60
2022/05/09 08:44:27;;;;;;;4.03;2.95;;;24.90;59.50;;;;;;5067332;28;20439;-61
2022/05/09 08:46:52;;;;;;;5.00;2.72;;;25.40;59.30;;;;;;5066515;28;20405;-60
2022/05/09 08:49:33;;;;;;;4.97;2.47;;;25.60;57.00;;;;;;5063863;28;20025;-60
2022/05/09 08:52:20;;;;;;;6.30;2.58;;;26.40;53.20;;;;;;5065899;28;20057;-60
2022/05/09 08:54:46;;;;;;;6.57;2.58;;;26.50;50.70;;;;;;5069639;28;20029;-60
2022/05/09 08:57:20;;;;;;;5.30;2.53;;;27.00;46.80;;;;;;5069530;28;20457;-60
2022/05/09 08:59:57;;;;;;;3.90;2.50;;;27.10;39.70;;;;;;5069346;28;20036;-61
2022/05/09 09:03:13;;;;;;;3.38;2.47;;;27.30;38.70;;;;;;5067467;28;20032;-61
2022/05/09 09:05:42;;;;;;;5.90;2.63;;;26.50;36.20;;;;;;5048752;28;20130;-61
2022/05/09 09:08:27;;;;;;;4.70;2.20;;;27.20;35.90;;;;;;5057652;28;20021;-62
2022/05/09 09:10:58;;;;;;;3.83;2.00;;;26.70;34.30;;;;;;5066507;28;20020;-61
2022/05/09 09:13:33;;;;;;;3.47;2.08;;;26.80;35.70;;;;;;5067163;28;20017;-61
2022/05/09 09:15:58;;;;;;;4.10;2.10;;;27.50;33.90;;;;;;5066279;28;20024;-61
2022/05/09 09:18:44;;;;;;;2.63;1.88;;;28.80;31.00;;;;;;5067913;28;20162;-62
2022/05/09 09:21:23;;;;;;;4.80;2.47;;;28.90;27.90;;;;;;5064834;28;20040;-61
2022/05/09 09:23:57;;;;;;;3.90;2.78;;;29.00;27.80;;;;;;5061394;28;20025;-62
2022/05/09 09:26:36;;;;;;;3.92;2.20;;;29.70;28.30;;;;;;5037458;28;20485;-61
2022/05/09 09:29:21;;;;;;;4.55;2.65;;;29.30;25.80;;;;;;5055297;28;20496;-61
2022/05/09 09:31:51;;;;;;;4.57;2.50;;;29.10;26.70;;;;;;5051677;28;20027;-61
2022/05/09 09:34:31;;;;;;;3.22;2.50;;;29.70;27.50;;;;;;5061317;28;20484;-62
2022/05/09 09:37:09;;;;;;;;;;;29.70;25.90;;;;;;5073354;28;20041;-62
2022/05/09 09:39:34;;;;;;;4.15;2.60;;;30.40;25.80;;;;;;5072616;28;19908;-63
2022/05/09 09:42:00;;;;;;;3.38;2.35;;;30.20;24.10;;;;;;5054190;28;20042;-61
2022/05/09 09:44:27;;;;;;;4.05;2.50;;;30.50;24.40;;;;;;5072345;28;20072;-61
2022/05/09 09:47:20;;;;;;;6.50;2.70;;;30.40;24.80;;;;;;5070660;28;20020;-60
2022/05/09 09:50:17;;;;;;;4.55;3.03;;;31.00;23.90;;;;;;5069445;28;20393;-61
2022/05/09 09:52:48;;;;;;;4.88;2.47;;;29.40;23.80;;;;;;5070082;28;20025;-61
2022/05/09 09:55:26;;;;;;;5.03;2.53;;;30.60;24.50;;;;;;5072836;28;20094;-60
2022/05/09 09:57:53;;;;;;;3.83;2.88;;;30.80;23.10;;;;;;5072275;28;20024;-62
2022/05/09 10:00:25;;;;;;;4.65;2.97;;;31.60;23.40;;;;;;5072565;28;20098;-61
2022/05/09 10:02:52;;;;;;;5.82;3.08;;;29.80;22.60;;;;;;5072435;28;20032;-61
2022/05/09 10:05:30;;;;;;;4.85;2.50;;;30.80;24.00;;;;;;5072376;28;20031;-60
2022/05/09 10:07:55;;;;;;;4.18;2.75;;;30.10;25.00;;;;;;5072213;28;20025;-60
2022/05/09 10:10:25;;;;;;;5.18;2.80;;;29.10;26.70;;;;;;5071888;28;20023;-61
2022/05/09 10:12:53;;;;;;;4.50;2.17;;;30.80;24.90;;;;;;5071899;28;20152;-61
2022/05/09 10:15:38;;;;;;;3.58;2.15;;;32.50;23.70;;;;;;5072166;28;20020;-61
2022/05/09 10:18:23;;;;;;;3.65;3.03;;;33.80;22.40;;;;;;5072478;28;20024;-61
2022/05/09 10:20:51;;;;;;;4.82;2.10;;;31.60;21.80;;;;;;5071899;28;20533;-61
2022/05/09 10:26:14;;;;;;;4.82;2.63;;;32.80;21.30;;;;;;5053466;28;20112;-61
2022/05/09 10:28:46;;;;;;;3.83;2.17;;;34.60;19.30;;;;;;5069854;28;20033;-61
2022/05/09 10:31:27;;;;;;;4.05;3.10;;;34.00;18.70;;;;;;5071975;28;20029;-61
2022/05/09 10:34:08;;;;;;;4.63;2.63;;;34.00;18.70;;;;;;5072038;28;20029;-61
2022/05/09 10:36:51;;;;;;;4.07;2.90;;;33.80;18.70;;;;;;5071492;28;20024;-62
2022/05/09 10:39:17;;;;;;;4.43;3.03;;;33.60;18.80;;;;;;5071068;28;20655;-61
2022/05/09 10:41:50;;;;;;;5.43;2.47;;;33.80;18.00;;;;;;5070680;28;20123;-61
2022/05/09 10:44:39;;;;;;;5.78;3.35;;;34.50;18.30;;;;;;5070087;28;20043;-61
2022/05/09 10:47:46;;;;;;;7.28;2.97;;;34.70;17.10;;;;;;5068634;28;20137;-61
2022/05/09 10:50:37;;;;;;;3.75;2.60;;;34.00;18.20;;;;;;5067351;28;20116;-62
2022/05/09 10:53:31;;;;;;;4.15;2.30;;;33.40;18.10;;;;;;5071463;28;20028;-61
2022/05/09 10:56:06;;;;;;;4.60;2.38;;;32.70;18.80;;;;;;5067999;28;20029;-62
2022/05/09 10:59:05;;;;;;;3.80;2.42;;;32.30;19.20;;;;;;5068057;28;20028;-62
2022/05/09 11:01:56;;;;;;;4.32;2.45;;;32.30;19.60;;;;;;5057519;28;20045;-61
2022/05/09 11:04:26;;;;;;;4.28;2.75;;;32.10;19.20;;;;;;5070924;28;20033;-61
2022/05/09 11:07:13;;;;;;;5.68;2.58;;;32.70;18.90;;;;;;5071122;28;20071;-61
2022/05/09 11:10:04;;;;;;;5.07;2.80;;;33.50;18.20;;;;;;5069591;28;20029;-62
2022/05/09 11:13:06;;;;;;;3.45;3.08;;;34.60;17.00;;;;;;5070034;28;20024;-61
2022/05/09 11:15:44;;;;;;;4.50;2.65;;;34.60;17.40;;;;;;5067739;28;20051;-61
2022/05/09 11:18:34;;;;;;;5.97;2.95;;;34.60;16.90;;;;;;5067892;28;20040;-61
2022/05/09 11:21:27;;;;;;;6.43;3.25;;;32.60;17.40;;;;;;5067534;28;20056;-61
2022/05/09 11:24:06;;;;;;;6.43;2.90;;;32.80;18.50;;;;;;5067763;28;20154;-61
2022/05/09 11:26:57;;;;;;;4.25;2.50;;;32.80;18.40;;;;;;5067364;28;20055;-61
2022/05/09 11:29:55;;;;;;;10.98;3.15;;;32.70;18.60;;;;;;5067410;28;20030;-61
2022/05/09 11:32:36;;;;;;;7.72;2.65;;;33.10;17.90;;;;;;5067631;28;20056;-61
2022/05/09 11:35:32;;;;;;;5.03;2.85;;;32.40;18.90;;;;;;5065703;28;20029;-61
2022/05/09 11:38:13;;;;;;;4.50;3.00;;;31.90;19.20;;;;;;5067178;28;20478;-61
2022/05/09 11:40:44;;;;;;;4.72;3.03;;;30.60;19.20;;;;;;5066680;28;20029;-60
2022/05/09 11:43:31;;;;;;;6.85;2.92;;;30.10;20.50;;;;;;5067299;28;20076;-60
2022/05/09 11:46:14;;;;;;;6.40;2.85;;;29.30;20.80;;;;;;5067203;28;20044;-61
2022/05/09 11:49:14;;;;;;;6.45;3.30;;;27.90;22.70;;;;;;5067095;28;20032;-61
2022/05/09 11:51:57;;;;;;;4.25;2.85;;;27.70;23.90;;;;;;5067220;28;20158;-60
2022/05/09 11:54:34;;;;;;;4.35;2.63;;;27.50;25.10;;;;;;5066972;28;20096;-61
2022/05/09 11:57:33;;;;;;;4.95;3.30;;;28.50;24.20;;;;;;5066875;28;20106;-60
2022/05/09 12:00:04;;;;;;;4.13;3.35;;;28.60;23.90;;;;;;5033084;28;20106;-60
2022/05/09 12:02:45;;;;;;;6.03;3.15;;;28.20;22.80;;;;;;5066985;28;20110;-61
2022/05/09 12:05:26;;;;;;;4.38;2.90;;;27.90;25.60;;;;;;5066793;28;20029;-62
2022/05/09 12:08:11;;;;;;;5.82;3.63;;;28.60;24.90;;;;;;5067094;28;20104;-62
2022/05/09 12:10:39;;;;;;;5.22;2.72;;;29.20;24.10;;;;;;5066459;28;20016;-62
2022/05/09 12:13:11;;;;;;;6.93;3.85;;;29.80;23.50;;;;;;5066841;28;20017;-63
2022/05/09 12:15:41;;;;;;;4.78;2.90;;;29.50;22.30;;;;;;5066967;28;20111;-62
2022/05/09 12:18:07;;;;;;;4.78;3.42;;;30.10;23.30;;;;;;5066952;28;20021;-63
2022/05/09 12:20:38;;;;;;;4.90;2.97;;;29.00;22.90;;;;;;5066914;28;20033;-62
2022/05/09 12:23:05;;;;;;;6.10;2.92;;;29.40;23.40;;;;;;5066625;28;20537;-63
2022/05/09 12:25:38;;;;;;;5.82;3.15;;;29.10;23.50;;;;;;5066440;28;20035;-62
2022/05/09 12:28:18;;;;;;;6.85;3.90;;;28.40;24.50;;;;;;5066475;28;20020;-63
2022/05/09 12:31:00;;;;;;;5.68;3.10;;;27.70;24.90;;;;;;5066883;28;20481;-62
2022/05/09 12:33:47;;;;;;;5.28;3.20;;;26.80;26.60;;;;;;5066834;28;20444;-62
2022/05/09 12:36:17;;;;;;;5.72;2.85;;;26.10;27.50;;;;;;5066630;28;20029;-62
2022/05/09 12:38:51;;;;;;;5.13;2.85;;;25.80;29.00;;;;;;5066828;28;20104;-61
2022/05/09 12:41:25;;;;;;;5.85;3.78;;;26.10;27.70;;;;;;5066292;28;20032;-62
2022/05/09 12:43:56;;;;;;;5.25;3.40;;;26.70;27.90;;;;;;5066574;28;20032;-62
2022/05/09 12:46:32;;;;;;;5.60;3.97;;;27.00;28.30;;;;;;5066613;28;20035;-61
2022/05/09 12:49:01;;;;;;;6.53;3.53;;;27.40;26.30;;;;;;5066468;28;20050;-60
2022/05/09 12:51:30;;;;;;;6.35;3.28;;;28.20;26.40;;;;;;5066693;28;20032;-62
2022/05/09 12:53:57;;;;;;;5.55;3.30;;;28.70;25.00;;;;;;5066649;28;20033;-62
2022/05/09 12:56:27;;;;;;;6.03;3.65;;;27.80;25.40;;;;;;5066411;28;20029;-61
2022/05/09 12:59:07;;;;;;;5.93;3.85;;;27.20;26.50;;;;;;5066316;28;20028;-62
2022/05/09 13:01:34;;;;;;;6.40;3.90;;;27.30;26.00;;;;;;5067154;28;20052;-61
2022/05/09 13:04:05;;;;;;;4.07;2.90;;;27.80;26.10;;;;;;5070245;28;20096;-61
2022/05/09 13:06:53;;;;;;;5.10;2.97;;;29.10;24.30;;;;;;5070189;28;20495;-61
2022/05/09 13:09:27;;;;;;;6.60;3.90;;;28.90;24.90;;;;;;5066596;28;20028;-61
2022/05/09 13:11:57;;;;;;;5.57;3.35;;;27.50;25.00;;;;;;5069559;28;20104;-61
2022/05/09 13:14:33;;;;;;;5.28;3.97;;;27.30;27.10;;;;;;5069862;28;20469;-61
2022/05/09 13:17:03;;;;;;;5.90;3.70;;;27.20;27.00;;;;;;5070016;28;20036;-61
2022/05/09 13:19:30;;;;;;;5.90;3.58;;;26.60;27.30;;;;;;5070010;28;20106;-60
2022/05/09 13:21:57;;;;;;;7.55;3.95;;;26.30;28.60;;;;;;5069988;28;20367;-61